createdAt,value
2022-11-15T00:00:27.426Z,53.00
2022-11-15T00:03:23.299Z,43.80
2022-11-15T00:06:10.725Z,47.28
2022-11-15T00:09:03.411Z,41.28
2022-11-15T00:11:52.702Z,42.25
2022-11-15T00:14:41.577Z,39.17
2022-11-15T00:17:28.503Z,41.80
2022-11-15T00:20:22.643Z,42.65
2022-11-15T00:23:10.711Z,41.65
2022-11-15T00:26:03.724Z,40.33
2022-11-15T00:28:54.748Z,40.58
2022-11-15T00:31:43.535Z,43.38
2022-11-15T00:34:32.693Z,42.58
2022-11-15T00:37:19.949Z,39.05
2022-11-15T00:40:17.943Z,45.50
2022-11-15T00:43:08.340Z,38.75
2022-11-15T00:45:57.027Z,40.10
2022-11-15T00:48:46.163Z,41.35
2022-11-15T00:51:33.822Z,40.30
2022-11-15T00:54:24.704Z,39.15
2022-11-15T00:57:13.027Z,38.60
2022-11-15T01:00:00.818Z,42.45
2022-11-15T01:02:49.286Z,49.00
2022-11-15T01:05:38.870Z,40.60
2022-11-15T01:08:26.156Z,80.93
2022-11-15T01:11:13.899Z,52.85
2022-11-15T01:14:01.555Z,56.83
2022-11-15T01:16:49.114Z,45.85
2022-11-15T01:19:36.044Z,50.25
2022-11-15T01:22:24.023Z,53.92
2022-11-15T01:25:14.082Z,62.60
2022-11-15T01:28:02.341Z,57.30
2022-11-15T01:30:51.076Z,43.20
2022-11-15T01:33:40.061Z,48.58
2022-11-15T01:36:28.029Z,40.15
2022-11-15T01:39:18.059Z,43.45
2022-11-15T01:42:08.194Z,44.15
2022-11-15T01:44:58.058Z,48.88
2022-11-15T01:47:48.486Z,48.88
2022-11-15T01:50:36.326Z,46.50
2022-11-15T01:53:30.073Z,49.33
2022-11-15T01:56:24.695Z,46.72
2022-11-15T01:59:16.637Z,47.63
2022-11-15T02:02:06.665Z,70.28
2022-11-15T02:04:56.920Z,48.47
2022-11-15T02:07:46.909Z,53.65
2022-11-15T02:10:33.665Z,50.70
2022-11-15T02:13:20.883Z,49.97
2022-11-15T02:16:39.070Z,45.78
2022-11-15T02:19:34.619Z,46.40
2022-11-15T02:22:26.113Z,45.97
2022-11-15T02:25:33.152Z,46.70
2022-11-15T02:28:42.457Z,50.53
2022-11-15T02:31:45.031Z,45.33
2022-11-15T02:34:36.424Z,52.13
2022-11-15T02:37:32.821Z,43.13
2022-11-15T02:40:34.776Z,47.47
2022-11-15T02:43:51.136Z,54.88
2022-11-15T02:47:06.797Z,65.43
2022-11-15T02:49:59.029Z,48.83
2022-11-15T02:52:55.603Z,47.97
2022-11-15T02:55:46.437Z,52.88
2022-11-15T02:58:42.148Z,53.08
2022-11-15T03:01:49.475Z,51.92
2022-11-15T03:04:46.010Z,55.65
2022-11-15T03:08:10.435Z,62.88
2022-11-15T03:11:05.886Z,58.28
2022-11-15T03:14:01.006Z,58.08
2022-11-15T03:17:10.728Z,53.07
2022-11-15T03:20:05.700Z,64.95
2022-11-15T03:23:01.450Z,75.18
2022-11-15T03:25:53.423Z,55.67
2022-11-15T03:29:00.828Z,115.22
2022-11-15T03:31:53.403Z,65.80
2022-11-15T03:34:45.770Z,62.72
2022-11-15T03:37:37.134Z,70.07
2022-11-15T03:40:29.790Z,65.32
2022-11-15T03:43:38.609Z,60.20
2022-11-15T03:46:39.109Z,76.40
2022-11-15T03:49:37.155Z,77.90
2022-11-15T03:52:26.010Z,81.40
2022-11-15T03:55:15.935Z,57.55
2022-11-15T03:58:09.695Z,59.50
2022-11-15T04:00:57.577Z,63.65
2022-11-15T04:03:48.567Z,94.47
2022-11-15T04:06:38.966Z,65.13
2022-11-15T04:09:27.226Z,57.35
2022-11-15T04:12:32.073Z,61.17
2022-11-15T04:15:21.607Z,59.70
2022-11-15T04:18:10.287Z,58.95
2022-11-15T04:21:19.635Z,75.28
2022-11-15T04:24:13.540Z,67.25
2022-11-15T04:27:01.829Z,86.57
2022-11-15T04:29:50.466Z,73.63
2022-11-15T04:32:38.664Z,82.95
2022-11-15T04:35:26.844Z,79.53
2022-11-15T04:38:15.076Z,74.32
2022-11-15T04:41:04.436Z,71.97
2022-11-15T04:43:55.991Z,81.05
2022-11-15T04:46:46.417Z,68.65
2022-11-15T04:49:35.639Z,93.60
2022-11-15T04:52:23.045Z,85.60
2022-11-15T04:55:16.972Z,92.03
2022-11-15T04:58:03.892Z,70.63
2022-11-15T05:00:51.148Z,60.55
2022-11-15T05:03:57.012Z,62.83
2022-11-15T05:06:50.014Z,74.03
2022-11-15T05:09:36.989Z,77.75
2022-11-15T05:12:29.273Z,73.25
2022-11-15T05:15:16.793Z,68.05
2022-11-15T05:18:04.200Z,70.95
2022-11-15T05:20:52.392Z,66.40
2022-11-15T05:23:41.544Z,60.08
2022-11-15T05:26:29.675Z,66.78
2022-11-15T05:29:17.357Z,76.55
2022-11-15T05:32:07.953Z,73.28
2022-11-15T05:34:57.322Z,80.45
2022-11-15T05:37:44.635Z,79.10
2022-11-15T05:40:36.740Z,71.22
2022-11-15T05:43:24.306Z,72.85
2022-11-15T05:46:12.691Z,79.82
2022-11-15T05:49:04.515Z,69.45
2022-11-15T05:51:53.755Z,65.20
2022-11-15T05:54:41.723Z,80.82
2022-11-15T05:57:31.353Z,64.60
2022-11-15T06:00:20.233Z,55.40
2022-11-15T06:03:08.109Z,75.03
2022-11-15T06:05:55.801Z,57.45
2022-11-15T06:08:45.657Z,53.95
2022-11-15T06:11:37.232Z,58.80
2022-11-15T06:14:29.428Z,69.38
2022-11-15T06:17:20.132Z,60.67
2022-11-15T06:20:10.934Z,76.53
2022-11-15T06:23:04.118Z,80.88
2022-11-15T06:25:53.042Z,65.63
2022-11-15T06:28:41.961Z,159.40
2022-11-15T06:31:30.209Z,91.38
2022-11-15T06:34:18.953Z,97.28
2022-11-15T06:40:12.761Z,67.35
2022-11-15T06:43:01.654Z,59.30
2022-11-15T06:45:50.243Z,55.65
2022-11-15T06:48:39.872Z,68.82
2022-11-15T06:51:29.211Z,48.55
2022-11-15T06:54:18.801Z,53.83
2022-11-15T06:57:09.851Z,44.85
2022-11-15T06:59:57.790Z,49.58
2022-11-15T07:02:46.580Z,79.03
2022-11-15T07:05:35.302Z,55.58
2022-11-15T07:08:23.793Z,49.17
2022-11-15T07:11:10.767Z,51.75
2022-11-15T07:14:00.814Z,57.05
2022-11-15T07:16:48.775Z,79.97
2022-11-15T07:19:36.727Z,66.63
2022-11-15T07:22:25.987Z,74.85
2022-11-15T07:25:13.344Z,60.35
2022-11-15T07:28:04.812Z,79.78
2022-11-15T07:30:53.709Z,76.60
2022-11-15T07:33:46.645Z,53.15
2022-11-15T07:36:34.725Z,59.15
2022-11-15T07:39:23.585Z,70.13
2022-11-15T07:42:29.932Z,84.85
2022-11-15T07:45:18.151Z,120.68
2022-11-15T07:48:07.603Z,237.30
2022-11-15T07:50:55.790Z,150.05
2022-11-15T07:53:45.043Z,74.95
2022-11-15T07:56:33.544Z,67.03
2022-11-15T07:59:22.692Z,63.58
2022-11-15T08:02:11.433Z,57.00
2022-11-15T08:04:58.738Z,59.35
2022-11-15T08:07:48.239Z,73.25
2022-11-15T08:10:40.617Z,167.30
2022-11-15T08:13:29.491Z,54.13
2022-11-15T08:16:17.824Z,121.88
2022-11-15T08:19:05.011Z,68.00
2022-11-15T08:21:52.556Z,49.67
2022-11-15T08:24:40.318Z,64.38
2022-11-15T08:27:28.079Z,49.50
2022-11-15T08:30:18.340Z,55.95
2022-11-15T08:33:07.286Z,43.58
2022-11-15T08:35:59.227Z,46.20
2022-11-15T08:38:49.052Z,45.70
2022-11-15T08:41:39.986Z,43.63
2022-11-15T08:44:29.622Z,47.63
2022-11-15T08:47:17.975Z,49.10
2022-11-15T08:50:05.845Z,53.47
2022-11-15T08:52:54.095Z,55.78
2022-11-15T08:55:44.768Z,58.25
2022-11-15T08:58:35.136Z,49.42
2022-11-15T09:01:25.263Z,52.33
2022-11-15T09:04:15.018Z,50.55
2022-11-15T09:07:03.875Z,38.53
2022-11-15T09:09:53.519Z,39.58
2022-11-15T09:12:41.436Z,41.42
2022-11-15T09:15:30.606Z,45.30
2022-11-15T09:18:17.807Z,56.28
2022-11-15T09:21:06.601Z,53.60
2022-11-15T09:23:53.823Z,56.60
2022-11-15T09:26:41.057Z,68.15
2022-11-15T09:29:28.618Z,57.38
2022-11-15T09:32:16.127Z,62.55
2022-11-15T09:35:02.824Z,69.55
2022-11-15T09:37:54.993Z,66.07
2022-11-15T09:40:53.662Z,67.10
2022-11-15T09:44:01.020Z,58.03
2022-11-15T09:46:59.720Z,64.18
2022-11-15T09:49:58.110Z,71.25
2022-11-15T09:52:43.885Z,56.58
2022-11-15T09:55:22.618Z,59.67
2022-11-15T09:58:00.818Z,66.20
2022-11-15T10:00:52.730Z,62.22
2022-11-15T10:03:43.145Z,65.35
2022-11-15T10:06:24.738Z,71.57
2022-11-15T10:09:03.595Z,68.18
2022-11-15T10:11:39.805Z,63.83
2022-11-15T10:14:16.037Z,54.17
2022-11-15T10:17:03.505Z,73.90
2022-11-15T10:19:35.040Z,73.10
2022-11-15T10:22:24.575Z,65.80
2022-11-15T10:25:02.364Z,71.05
2022-11-15T10:27:32.588Z,58.38
2022-11-15T10:30:01.323Z,55.47
2022-11-15T10:32:30.862Z,52.75
2022-11-15T10:34:59.302Z,54.15
2022-11-15T10:37:32.758Z,49.20
2022-11-15T10:40:07.283Z,56.20
2022-11-15T10:42:36.683Z,55.15
2022-11-15T10:45:24.223Z,53.65
2022-11-15T10:47:53.572Z,60.15
2022-11-15T10:50:32.906Z,51.10
2022-11-15T10:53:06.376Z,72.07
2022-11-15T10:55:35.760Z,104.88
2022-11-15T10:58:22.597Z,225.05
2022-11-15T11:00:54.449Z,126.00
2022-11-15T11:03:31.675Z,115.95
2022-11-15T11:06:08.141Z,81.80
2022-11-15T11:08:37.544Z,82.10
2022-11-15T11:11:13.729Z,60.50
2022-11-15T11:13:44.038Z,57.25
2022-11-15T11:16:15.611Z,71.03
2022-11-15T11:18:54.054Z,65.93
2022-11-15T11:21:46.088Z,139.88
2022-11-15T11:24:34.885Z,75.53
2022-11-15T11:27:06.188Z,60.53
2022-11-15T11:29:45.437Z,244.77
2022-11-15T11:32:29.044Z,91.03
2022-11-15T11:34:58.620Z,61.65
2022-11-15T11:37:30.790Z,55.65
2022-11-15T11:40:19.402Z,64.43
2022-11-15T11:43:02.808Z,74.28
2022-11-15T11:45:36.011Z,65.90
2022-11-15T11:48:16.667Z,70.28
2022-11-15T11:50:47.953Z,54.00
2022-11-15T11:53:28.299Z,59.83
2022-11-15T11:56:03.594Z,87.88
2022-11-15T11:58:39.538Z,60.65
2022-11-15T12:01:29.542Z,64.07
2022-11-15T12:04:06.382Z,74.40
2022-11-15T12:06:52.301Z,56.95
2022-11-15T12:09:41.941Z,66.88
2022-11-15T12:12:21.441Z,74.05
2022-11-15T12:14:55.789Z,85.65
2022-11-15T12:17:33.705Z,68.68
2022-11-15T12:20:04.747Z,102.72
2022-11-15T12:22:40.331Z,97.30
2022-11-15T12:27:57.525Z,90.55
2022-11-15T12:30:42.249Z,129.27
2022-11-15T12:33:32.621Z,75.10
2022-11-15T12:36:11.483Z,58.75
2022-11-15T12:38:52.331Z,90.95
2022-11-15T12:41:21.526Z,92.15
2022-11-15T12:43:52.951Z,89.22
2022-11-15T12:46:34.692Z,104.50
2022-11-15T12:49:11.113Z,90.85
2022-11-15T12:54:23.558Z,85.15
2022-11-15T12:57:16.788Z,92.53
2022-11-15T12:59:57.128Z,86.82
2022-11-15T13:02:38.120Z,74.60
2022-11-15T13:05:47.052Z,131.20
2022-11-15T13:08:39.879Z,99.57
2022-11-15T13:11:36.522Z,70.95
2022-11-15T13:14:27.049Z,71.82
2022-11-15T13:17:31.736Z,71.93
2022-11-15T13:23:03.497Z,77.70
2022-11-15T13:25:41.065Z,69.93
2022-11-15T13:28:17.125Z,66.22
2022-11-15T13:30:48.878Z,70.82
2022-11-15T13:33:34.647Z,94.68
2022-11-15T13:36:10.740Z,93.32
2022-11-15T13:38:43.773Z,132.90
2022-11-15T13:41:23.300Z,90.38
2022-11-15T13:43:53.392Z,109.50
2022-11-15T13:46:43.664Z,76.53
2022-11-15T13:49:15.925Z,342.73
2022-11-15T13:51:56.395Z,385.73
2022-11-15T13:54:30.459Z,346.80
2022-11-15T13:57:20.451Z,113.97
2022-11-15T14:00:04.644Z,105.25
2022-11-15T14:03:21.170Z,78.88
2022-11-15T14:06:07.996Z,76.93
2022-11-15T14:08:40.384Z,70.53
2022-11-15T14:11:12.902Z,75.35
2022-11-15T14:13:42.577Z,75.28
2022-11-15T14:16:22.065Z,70.15
2022-11-15T14:22:12.747Z,158.27
2022-11-15T14:24:47.855Z,112.75
2022-11-15T14:27:35.633Z,59.22
2022-11-15T14:30:04.995Z,108.05
2022-11-15T14:32:49.233Z,125.10
2022-11-15T14:35:29.479Z,202.00
2022-11-15T14:38:01.632Z,108.10
2022-11-15T14:40:33.122Z,154.48
2022-11-15T14:43:12.736Z,86.68
2022-11-15T14:45:46.285Z,85.22
2022-11-15T14:48:23.495Z,112.40
2022-11-15T14:50:51.622Z,126.38
2022-11-15T14:53:22.985Z,46.85
2022-11-15T14:56:06.726Z,43.90
2022-11-15T14:58:43.236Z,59.38
2022-11-15T15:01:33.091Z,94.80
2022-11-15T15:04:01.957Z,49.63
2022-11-15T15:06:32.750Z,55.88
2022-11-15T15:09:01.503Z,69.10
2022-11-15T15:11:32.537Z,60.30
2022-11-15T15:14:07.543Z,46.40
2022-11-15T15:16:39.144Z,62.47
2022-11-15T15:19:09.806Z,57.40
2022-11-15T15:21:51.440Z,73.38
2022-11-15T15:24:22.863Z,56.55
2022-11-15T15:26:51.661Z,58.13
2022-11-15T15:29:21.417Z,58.17
2022-11-15T15:31:51.527Z,52.65
2022-11-15T15:34:22.217Z,39.65
2022-11-15T15:37:18.259Z,58.72
2022-11-15T15:40:17.334Z,50.33
2022-11-15T15:42:53.122Z,44.78
2022-11-15T15:45:28.586Z,41.65
2022-11-15T15:47:58.822Z,38.58
2022-11-15T15:50:32.418Z,35.70
2022-11-15T15:53:13.885Z,35.63
2022-11-15T15:58:36.979Z,38.10
2022-11-15T16:01:07.001Z,42.72
2022-11-15T16:03:38.827Z,51.40
2022-11-15T16:06:28.607Z,33.90
2022-11-15T16:09:13.978Z,32.35
2022-11-15T16:11:44.100Z,48.30
2022-11-15T16:14:13.811Z,33.78
2022-11-15T16:16:43.800Z,55.20
2022-11-15T16:19:13.343Z,76.90
2022-11-15T16:21:50.617Z,40.22
2022-11-15T16:24:23.681Z,46.15
2022-11-15T16:26:57.293Z,63.70
2022-11-15T16:29:27.307Z,37.92
2022-11-15T16:32:07.697Z,30.38
2022-11-15T16:34:42.756Z,37.78
2022-11-15T16:37:28.154Z,42.30
2022-11-15T16:40:06.663Z,32.60
2022-11-15T16:42:43.025Z,35.25
2022-11-15T16:45:31.431Z,34.55
2022-11-15T16:48:35.248Z,32.00
2022-11-15T16:51:05.121Z,31.40
2022-11-15T16:53:45.151Z,43.28
2022-11-15T16:56:41.114Z,33.58
2022-11-15T16:59:12.663Z,31.02
2022-11-15T17:01:46.964Z,27.35
2022-11-15T17:04:19.438Z,38.67
2022-11-15T17:06:48.621Z,30.92
2022-11-15T17:09:30.437Z,23.23
2022-11-15T17:12:12.000Z,25.70
2022-11-15T17:14:41.097Z,26.27
2022-11-15T17:17:11.121Z,22.50
2022-11-15T17:19:40.248Z,31.38
2022-11-15T17:22:10.274Z,32.08
2022-11-15T17:24:40.460Z,36.03
2022-11-15T17:27:08.772Z,28.50
2022-11-15T17:32:14.367Z,33.80
2022-11-15T17:34:46.635Z,26.27
2022-11-15T17:37:16.086Z,21.83
2022-11-15T17:39:46.886Z,28.58
2022-11-15T17:42:20.171Z,22.25
2022-11-15T17:44:53.695Z,31.33
2022-11-15T17:47:23.163Z,41.92
2022-11-15T17:49:52.180Z,30.08
2022-11-15T17:52:21.692Z,30.30
2022-11-15T17:54:51.265Z,33.35
2022-11-15T17:57:21.432Z,27.55
2022-11-15T17:59:54.036Z,41.08
2022-11-15T18:02:22.832Z,26.75
2022-11-15T18:04:52.497Z,31.63
2022-11-15T18:07:21.567Z,30.88
2022-11-15T18:09:51.638Z,28.20
2022-11-15T18:12:22.509Z,30.90
2022-11-15T18:14:57.048Z,34.85
2022-11-15T18:17:26.352Z,66.50
2022-11-15T18:20:00.829Z,27.58
2022-11-15T18:22:35.065Z,28.00
2022-11-15T18:25:12.281Z,23.38
2022-11-15T18:28:07.414Z,24.23
2022-11-15T18:30:42.409Z,26.05
2022-11-15T18:33:16.032Z,21.92
2022-11-15T18:35:52.218Z,32.80
2022-11-15T18:38:24.691Z,37.13
2022-11-15T18:40:59.936Z,43.42
2022-11-15T18:43:30.767Z,27.05
2022-11-15T18:46:12.146Z,24.08
2022-11-15T18:48:44.492Z,22.92
2022-11-15T18:51:22.158Z,23.40
2022-11-15T18:54:00.210Z,23.50
2022-11-15T18:56:31.549Z,35.25
2022-11-15T18:59:02.157Z,24.08
2022-11-15T19:01:38.246Z,33.33
2022-11-15T19:04:33.155Z,32.78
2022-11-15T19:07:04.595Z,26.92
2022-11-15T19:09:35.548Z,25.45
2022-11-15T19:12:06.925Z,25.27
2022-11-15T19:14:38.297Z,23.90
2022-11-15T19:17:13.692Z,26.75
2022-11-15T19:22:24.954Z,26.15
2022-11-15T19:24:59.908Z,26.10
2022-11-15T19:27:38.089Z,26.98
2022-11-15T19:30:11.004Z,31.63
2022-11-15T19:32:43.033Z,31.58
2022-11-15T19:35:19.608Z,34.50
2022-11-15T19:38:21.909Z,33.95
2022-11-15T19:41:15.733Z,30.55
2022-11-15T19:43:52.073Z,28.65
2022-11-15T19:46:24.848Z,34.95
2022-11-15T19:48:58.276Z,29.77
2022-11-15T19:51:31.278Z,29.42
2022-11-15T19:54:07.186Z,42.38
2022-11-15T19:56:38.483Z,30.40
2022-11-15T19:59:07.325Z,29.98
2022-11-15T20:01:48.251Z,30.40
2022-11-15T20:04:19.358Z,62.00
2022-11-15T20:06:51.712Z,36.17
2022-11-15T20:09:22.202Z,31.48
2022-11-15T20:11:53.911Z,30.38
2022-11-15T20:14:25.840Z,30.45
2022-11-15T20:16:58.668Z,32.67
2022-11-15T20:19:28.831Z,30.95
2022-11-15T20:22:00.246Z,35.10
2022-11-15T20:24:29.711Z,36.75
2022-11-15T20:27:02.229Z,37.13
2022-11-15T20:29:31.370Z,34.78
2022-11-15T20:32:05.912Z,33.70
2022-11-15T20:34:34.662Z,36.25
2022-11-15T20:37:19.168Z,35.63
2022-11-15T20:39:51.199Z,31.85
2022-11-15T20:42:24.165Z,34.17
2022-11-15T20:44:55.505Z,37.03
2022-11-15T20:47:29.115Z,33.35
2022-11-15T20:52:52.860Z,33.33
2022-11-15T20:55:26.180Z,35.80
2022-11-15T20:58:01.574Z,32.40
2022-11-15T21:00:33.625Z,33.65
2022-11-15T21:06:02.833Z,26.00
2022-11-15T21:12:06.116Z,43.85
2022-11-15T21:14:35.746Z,93.03
2022-11-15T21:17:05.129Z,100.43
2022-11-15T21:19:37.168Z,54.35
2022-11-15T21:22:12.970Z,49.72
2022-11-15T21:24:45.769Z,40.80
2022-11-15T21:27:15.719Z,47.70
2022-11-15T21:29:46.453Z,46.08
2022-11-15T21:32:15.488Z,39.10
2022-11-15T21:34:45.427Z,45.05
2022-11-15T21:37:15.548Z,68.70
2022-11-15T21:39:47.630Z,84.85
2022-11-15T21:42:23.749Z,96.30
2022-11-15T21:44:57.011Z,60.50
2022-11-15T21:47:36.340Z,66.03
2022-11-15T21:50:15.788Z,47.95
2022-11-15T21:52:45.151Z,48.33
2022-11-15T21:55:14.762Z,40.45
2022-11-15T21:57:43.643Z,37.95
2022-11-15T22:00:31.502Z,62.30
2022-11-15T22:03:00.657Z,41.33
2022-11-15T22:05:29.370Z,57.97
2022-11-15T22:07:57.664Z,99.50
2022-11-15T22:10:27.625Z,53.65
2022-11-15T22:12:57.748Z,44.65
2022-11-15T22:15:26.704Z,49.65
2022-11-15T22:17:57.955Z,58.15
2022-11-15T22:20:44.622Z,47.10
2022-11-15T22:23:13.334Z,48.33
2022-11-15T22:25:44.066Z,49.03
2022-11-15T22:28:12.347Z,61.20
2022-11-15T22:30:42.128Z,47.15
2022-11-15T22:33:10.701Z,54.60
2022-11-15T22:35:40.967Z,45.35
2022-11-15T22:38:09.954Z,65.32
2022-11-15T22:40:41.137Z,56.80
2022-11-15T22:43:10.749Z,43.10
2022-11-15T22:45:42.170Z,42.47
2022-11-15T22:48:14.230Z,42.92
2022-11-15T22:50:44.458Z,65.50
2022-11-15T22:53:13.939Z,79.63
2022-11-15T22:55:43.308Z,71.65
2022-11-15T22:58:11.915Z,54.47
2022-11-15T23:00:42.485Z,50.20
2022-11-15T23:03:11.495Z,46.05
2022-11-15T23:05:40.419Z,44.70
2022-11-15T23:08:09.239Z,46.38
2022-11-15T23:10:58.253Z,44.85
2022-11-15T23:13:33.399Z,45.97
2022-11-15T23:16:26.080Z,47.20
2022-11-15T23:18:56.112Z,50.97
2022-11-15T23:21:49.804Z,45.03
2022-11-15T23:24:20.707Z,47.78
2022-11-15T23:26:52.117Z,52.65
2022-11-15T23:29:21.957Z,43.45
2022-11-15T23:32:11.535Z,38.30
2022-11-15T23:34:47.314Z,48.97
2022-11-15T23:37:16.879Z,44.00
2022-11-15T23:39:46.461Z,49.67
2022-11-15T23:42:20.188Z,44.38
2022-11-15T23:44:50.896Z,42.45
2022-11-15T23:47:20.643Z,39.33
2022-11-15T23:49:49.988Z,39.95
2022-11-15T23:52:23.405Z,46.42
2022-11-15T23:54:52.771Z,46.17
2022-11-15T23:57:23.653Z,38.45
2022-11-15T23:59:52.969Z,40.92
